Terminal Aerodrome Forecast
Issued by NWS

Home | Current Version | Previous Version | Text Only | Print | Product List | Glossary On
Versions: 1 2 3 4 5 6 7 8 9 10 11 12 13 14 15 16 17 18
000
FTUS46 KSEW 212300 RRA
TAFCLM
TAF
KCLM 212347Z 2200/2224 VRB03KT 5SM -RA BR OVC050
     FM220200 26012KT P6SM -SHRA BKN025 BKN050
      TEMPO 2213/2217 5SM -SHRA BR
     FM222000 27010KT P6SM VCSH SCT025 BKN050=

USA.gov is the U.S. government's official web portal to all federal, state and local government web resources and services.